Time;durP1;ratioP1;P1;durP2;ratioP2;P2;SDS_P1;SDS_P2;PMS_P1;PMS_P2;Temp;Humidity;BMP_temperature;BMP_pressure;BME280_temperature;BME280_humidity;BME280_pressure;Samples;Min_cycle;Max_cycle;Signal;HPM_P1;HPM_P2
2022/02/16 00:00:16;;;;;;;10.02;2.20;;;27.30;99.90;;;;;;5073739;28;20056;-82
2022/02/16 00:02:44;;;;;;;8.60;1.27;;;27.60;99.90;;;;;;5078219;28;20525;-83
2022/02/16 00:05:12;;;;;;;9.02;1.60;;;27.40;99.90;;;;;;5073496;28;20116;-81
2022/02/16 00:07:41;;;;;;;8.82;1.75;;;27.20;99.90;;;;;;5076017;28;20466;-82
2022/02/16 00:10:10;;;;;;;13.00;2.45;;;27.20;99.90;;;;;;5075145;28;20020;-81
2022/02/16 00:12:38;;;;;;;8.70;1.80;;;27.40;99.90;;;;;;5073347;28;20492;-81
2022/02/16 00:15:06;;;;;;;5.78;1.85;;;27.70;99.90;;;;;;5073866;28;20021;-83
2022/02/16 00:17:36;;;;;;;9.15;1.88;;;27.90;99.90;;;;;;5072792;28;20024;-81
2022/02/16 00:20:05;;;;;;;13.38;2.78;;;28.00;99.90;;;;;;5074434;28;20070;-79
2022/02/16 00:22:32;;;;;;;7.70;1.80;;;28.20;99.90;;;;;;5072175;28;20025;-80
2022/02/16 00:25:00;;;;;;;10.02;1.40;;;28.10;99.80;;;;;;5072566;28;20406;-80
2022/02/16 00:27:27;;;;;;;6.88;1.35;;;28.00;99.90;;;;;;5072502;28;20422;-83
2022/02/16 00:29:54;;;;;;;6.53;1.63;;;28.00;99.90;;;;;;5073700;28;20048;-83
2022/02/16 00:32:22;;;;;;;9.43;2.38;;;28.30;99.90;;;;;;5074614;28;20411;-82
2022/02/16 00:34:49;;;;;;;9.15;1.73;;;28.30;99.90;;;;;;5072138;28;20024;-80
2022/02/16 00:37:16;;;;;;;8.45;1.58;;;28.30;99.90;;;;;;5073795;28;20514;-79
2022/02/16 00:39:44;;;;;;;7.20;1.50;;;28.40;99.10;;;;;;5073350;28;20021;-82
2022/02/16 00:42:11;;;;;;;9.18;2.00;;;28.50;99.90;;;;;;5074809;28;20397;-83
2022/02/16 00:44:38;;;;;;;6.47;1.33;;;28.60;99.90;;;;;;5073306;28;20100;-84
2022/02/16 00:47:06;;;;;;;5.47;1.40;;;28.80;99.90;;;;;;5073316;28;20050;-82
2022/02/16 00:49:34;;;;;;;8.13;1.48;;;29.00;98.90;;;;;;5075733;28;20031;-79
2022/02/16 00:52:02;;;;;;;9.10;1.38;;;29.10;99.30;;;;;;5075787;28;20031;-80
2022/02/16 00:54:30;;;;;;;9.02;1.50;;;28.80;98.60;;;;;;5076420;28;20104;-82
2022/02/16 00:57:01;;;;;;;9.35;1.80;;;28.80;98.70;;;;;;5077274;28;20077;-82
2022/02/16 00:59:31;;;;;;;9.48;1.95;;;28.70;99.90;;;;;;5076540;28;20025;-82
2022/02/16 01:01:59;;;;;;;8.32;1.63;;;28.40;99.90;;;;;;5077773;28;20025;-77
2022/02/16 01:04:26;;;;;;;8.50;1.90;;;28.40;99.90;;;;;;5078330;28;20017;-80
2022/02/16 01:06:54;;;;;;;5.97;1.30;;;28.90;99.90;;;;;;5077877;28;20074;-82
2022/02/16 01:09:21;;;;;;;8.35;1.88;;;29.40;99.90;;;;;;5077022;28;20024;-80
2022/02/16 01:11:49;;;;;;;9.63;2.13;;;29.20;99.40;;;;;;5079080;28;20478;-80
2022/02/16 01:14:16;;;;;;;5.97;1.33;;;29.00;99.30;;;;;;5079685;28;20036;-82
2022/02/16 01:16:44;;;;;;;6.25;1.15;;;29.00;99.30;;;;;;5079523;28;20497;-82
2022/02/16 01:19:11;;;;;;;8.65;1.77;;;29.20;99.30;;;;;;5076507;28;20076;-82
2022/02/16 01:21:38;;;;;;;9.32;1.58;;;29.30;99.90;;;;;;5076746;28;20025;-82
2022/02/16 01:24:06;;;;;;;9.18;1.70;;;29.50;99.30;;;;;;5076793;28;20386;-83
2022/02/16 01:26:34;;;;;;;6.68;1.58;;;29.40;99.00;;;;;;5076224;28;20429;-81
2022/02/16 01:29:01;;;;;;;8.32;1.60;;;29.40;99.20;;;;;;5080271;28;20384;-81
2022/02/16 01:31:28;;;;;;;8.10;1.73;;;29.50;99.20;;;;;;5079780;28;20047;-85
2022/02/16 01:33:55;;;;;;;4.03;1.23;;;29.40;99.40;;;;;;5078875;28;20025;-84
2022/02/16 01:36:23;;;;;;;9.23;1.83;;;29.40;98.60;;;;;;5079324;28;20021;-83
2022/02/16 01:38:50;;;;;;;8.15;1.52;;;29.20;99.40;;;;;;5077610;28;20055;-83
2022/02/16 01:41:18;;;;;;;8.98;1.98;;;29.40;99.30;;;;;;5079103;28;20115;-83
2022/02/16 01:43:50;;;;;;;7.15;1.67;;;29.50;99.00;;;;;;5079963;28;20047;-84
2022/02/16 01:46:18;;;;;;;7.18;1.60;;;29.40;99.20;;;;;;5079086;28;20044;-85
2022/02/16 01:48:46;;;;;;;7.38;1.60;;;29.60;98.90;;;;;;5079598;28;20025;-83
2022/02/16 01:51:14;;;;;;;5.95;1.40;;;29.70;98.70;;;;;;5077905;28;20069;-83
2022/02/16 01:53:42;;;;;;;7.38;1.70;;;29.60;99.20;;;;;;5080670;28;20025;-85
2022/02/16 01:56:10;;;;;;;7.05;1.80;;;29.80;98.90;;;;;;5081783;28;20028;-84
2022/02/16 01:58:40;;;;;;;7.25;1.52;;;30.10;98.50;;;;;;5078137;28;20028;-86
2022/02/16 02:01:08;;;;;;;;;;;29.90;98.60;;;;;;5078593;28;20029;-86
2022/02/16 02:03:36;;;;;;;5.53;1.55;;;30.00;98.50;;;;;;5080708;28;19915;-87
2022/02/16 02:06:03;;;;;;;10.82;2.10;;;30.10;98.20;;;;;;5079586;28;20059;-85
2022/02/16 02:08:31;;;;;;;6.50;1.77;;;29.60;98.20;;;;;;5079070;28;20021;-86
2022/02/16 02:10:58;;;;;;;9.10;1.60;;;29.70;98.20;;;;;;5077486;28;20020;-83
2022/02/16 02:13:26;;;;;;;7.00;1.40;;;29.90;98.10;;;;;;5077383;28;20385;-82
2022/02/16 02:15:53;;;;;;;6.43;1.52;;;30.00;97.70;;;;;;5076610;28;20029;-82
2022/02/16 02:18:21;;;;;;;6.05;1.73;;;29.80;97.40;;;;;;5078263;28;20024;-82
2022/02/16 02:20:49;;;;;;;6.93;1.48;;;29.90;98.30;;;;;;5075498;28;20033;-81
2022/02/16 02:23:16;;;;;;;8.18;1.58;;;30.10;97.70;;;;;;5078454;28;20055;-82
2022/02/16 02:25:50;;;;;;;5.07;1.42;;;29.90;97.60;;;;;;5078669;28;20051;-78
2022/02/16 02:28:20;;;;;;;4.93;1.60;;;30.00;97.70;;;;;;5077240;28;20500;-81
2022/02/16 02:30:48;;;;;;;8.65;1.83;;;30.00;98.30;;;;;;5075710;28;20385;-80
2022/02/16 02:33:16;;;;;;;6.57;1.52;;;30.00;98.60;;;;;;5076525;28;20108;-83
2022/02/16 02:35:44;;;;;;;11.57;1.63;;;30.40;98.40;;;;;;5075315;28;20020;-81
2022/02/16 02:38:11;;;;;;;6.15;1.95;;;30.40;98.50;;;;;;5074962;28;20531;-80
2022/02/16 02:40:39;;;;;;;7.40;1.67;;;30.50;98.70;;;;;;5074712;28;20044;-81
2022/02/16 02:43:07;;;;;;;6.97;1.60;;;30.40;98.80;;;;;;5075340;28;20055;-85
2022/02/16 02:45:35;;;;;;;9.68;2.00;;;30.20;97.90;;;;;;5077161;28;20021;-82
2022/02/16 02:48:03;;;;;;;5.63;1.23;;;29.90;97.80;;;;;;5076554;28;20094;-82
2022/02/16 02:50:30;;;;;;;6.05;1.80;;;29.90;99.00;;;;;;5077189;28;20082;-83
2022/02/16 02:52:58;;;;;;;7.82;1.70;;;30.10;98.20;;;;;;5075882;28;20542;-82
2022/02/16 02:55:25;;;;;;;8.77;1.95;;;30.30;97.40;;;;;;5075712;28;20035;-81
2022/02/16 02:57:52;;;;;;;9.30;1.95;;;30.50;97.10;;;;;;5076667;28;20080;-82
2022/02/16 03:00:20;;;;;;;9.48;2.05;;;30.50;97.30;;;;;;5076920;28;20415;-81
2022/02/16 03:02:47;;;;;;;7.70;1.92;;;30.20;97.50;;;;;;5076011;28;20062;-82
2022/02/16 03:05:15;;;;;;;8.07;1.70;;;30.00;97.60;;;;;;5077753;28;20170;-80
2022/02/16 03:07:42;;;;;;;11.63;2.30;;;30.00;98.00;;;;;;5077235;28;20020;-81
2022/02/16 03:10:10;;;;;;;6.13;1.40;;;30.20;98.10;;;;;;5077162;28;20099;-81
2022/02/16 03:12:37;;;;;;;9.60;1.83;;;30.60;98.50;;;;;;5077656;28;20020;-82
2022/02/16 03:15:05;;;;;;;7.40;1.42;;;30.50;97.60;;;;;;5076107;28;20441;-79
2022/02/16 03:17:33;;;;;;;7.18;1.65;;;30.30;98.10;;;;;;5074885;28;20096;-82
2022/02/16 03:20:00;;;;;;;9.02;1.55;;;29.90;97.50;;;;;;5075428;28;20052;-81
2022/02/16 03:22:28;;;;;;;10.27;1.42;;;29.90;98.40;;;;;;5075960;28;20028;-82
2022/02/16 03:24:56;;;;;;;5.93;2.08;;;30.30;98.10;;;;;;5075438;28;20041;-84
2022/02/16 03:27:23;;;;;;;9.18;1.70;;;29.80;98.00;;;;;;5076092;28;20104;-83
2022/02/16 03:29:51;;;;;;;8.30;1.63;;;29.70;98.30;;;;;;5074753;28;20020;-80
2022/02/16 03:32:22;;;;;;;8.15;1.65;;;29.60;98.20;;;;;;5073855;28;20047;-82
2022/02/16 03:34:49;;;;;;;8.65;1.77;;;29.80;98.60;;;;;;5074968;28;20481;-83
2022/02/16 03:37:16;;;;;;;6.57;1.45;;;29.70;98.60;;;;;;5076792;28;20016;-82
2022/02/16 03:39:44;;;;;;;6.13;1.20;;;29.90;98.80;;;;;;5075358;28;20469;-85
2022/02/16 03:42:14;;;;;;;7.90;1.52;;;30.00;98.10;;;;;;5076599;28;20025;-83
2022/02/16 03:44:42;;;;;;;12.73;1.98;;;29.90;99.10;;;;;;5074675;28;20021;-82
2022/02/16 03:47:09;;;;;;;7.22;1.27;;;29.90;98.60;;;;;;5077931;28;20031;-83
2022/02/16 03:49:37;;;;;;;9.00;1.70;;;30.30;98.00;;;;;;5075321;28;20392;-81
2022/02/16 03:52:05;;;;;;;6.60;1.70;;;30.40;98.40;;;;;;5074844;28;20021;-80
2022/02/16 03:54:32;;;;;;;7.13;1.50;;;30.00;97.60;;;;;;5074936;28;20056;-79
2022/02/16 03:56:59;;;;;;;7.97;1.67;;;30.10;98.00;;;;;;5075821;28;20025;-81
2022/02/16 03:59:27;;;;;;;6.85;1.95;;;30.10;98.40;;;;;;5073951;28;20029;-82
2022/02/16 04:01:55;;;;;;;7.75;1.65;;;30.10;97.90;;;;;;5074916;28;20376;-81
2022/02/16 04:04:23;;;;;;;7.05;1.60;;;30.00;98.10;;;;;;5074091;28;20021;-82
2022/02/16 04:06:50;;;;;;;6.78;1.48;;;30.30;98.20;;;;;;5075356;28;20517;-81
2022/02/16 04:09:18;;;;;;;10.32;1.60;;;30.30;97.20;;;;;;5075240;28;20050;-82
2022/02/16 04:11:45;;;;;;;8.02;2.03;;;29.90;97.90;;;;;;5075153;28;20047;-76
2022/02/16 04:14:12;;;;;;;9.73;1.65;;;30.10;98.20;;;;;;5072388;28;20032;-78
2022/02/16 04:16:40;;;;;;;4.47;1.20;;;30.40;97.90;;;;;;5073247;28;20044;-77
2022/02/16 04:19:07;;;;;;;7.20;1.48;;;30.30;98.40;;;;;;5073208;28;20024;-77
2022/02/16 04:21:34;;;;;;;7.95;1.70;;;30.50;98.40;;;;;;5071949;28;20033;-78
2022/02/16 04:24:02;;;;;;;9.38;1.70;;;30.20;97.90;;;;;;5071814;28;20505;-78
2022/02/16 04:26:29;;;;;;;7.82;1.30;;;30.20;98.20;;;;;;5073258;28;20055;-77
2022/02/16 04:28:56;;;;;;;5.47;1.23;;;30.10;98.50;;;;;;5073242;28;20039;-78
2022/02/16 04:31:24;;;;;;;5.32;1.27;;;30.00;98.90;;;;;;5072894;28;20355;-78
2022/02/16 04:33:51;;;;;;;8.70;2.00;;;30.30;98.80;;;;;;5072029;28;20058;-78
2022/02/16 04:36:25;;;;;;;6.60;1.58;;;30.10;98.20;;;;;;5073009;28;20386;-79
2022/02/16 04:38:57;;;;;;;7.97;1.30;;;30.10;98.30;;;;;;5073177;28;20016;-78
2022/02/16 04:41:25;;;;;;;6.93;1.40;;;30.30;97.80;;;;;;5072897;28;20020;-78
2022/02/16 04:43:53;;;;;;;6.18;1.33;;;29.90;98.20;;;;;;5071830;28;20028;-78
2022/02/16 04:46:21;;;;;;;7.75;1.70;;;29.70;98.40;;;;;;5071912;28;20181;-78
2022/02/16 04:48:48;;;;;;;9.38;1.55;;;29.90;99.20;;;;;;5071663;28;20087;-78
2022/02/16 04:51:16;;;;;;;9.50;1.90;;;30.30;98.50;;;;;;5071636;28;20119;-78
2022/02/16 04:53:43;;;;;;;6.65;1.67;;;30.40;98.20;;;;;;5071980;28;20032;-78
2022/02/16 04:56:11;;;;;;;10.02;2.15;;;30.50;98.50;;;;;;5071622;28;20029;-78
2022/02/16 04:58:38;;;;;;;6.30;1.60;;;29.80;98.60;;;;;;5072801;28;20028;-78
2022/02/16 05:01:05;;;;;;;10.05;1.73;;;29.60;99.10;;;;;;5072945;28;20074;-79
2022/02/16 05:03:33;;;;;;;7.30;1.48;;;29.80;98.60;;;;;;5073057;28;20048;-78
2022/02/16 05:06:00;;;;;;;10.07;1.90;;;29.40;99.20;;;;;;5071678;28;20020;-78
2022/02/16 05:08:28;;;;;;;8.10;2.20;;;29.50;99.60;;;;;;5072818;28;20021;-78
2022/02/16 05:10:55;;;;;;;5.95;1.38;;;29.80;99.30;;;;;;5071707;28;20393;-78
2022/02/16 05:13:22;;;;;;;8.32;1.60;;;29.60;98.30;;;;;;5071609;28;20393;-78
2022/02/16 05:15:50;;;;;;;7.85;1.55;;;29.60;99.10;;;;;;5071552;28;20024;-78
2022/02/16 05:18:17;;;;;;;10.32;2.15;;;29.30;99.10;;;;;;5072724;28;20036;-78
2022/02/16 05:20:44;;;;;;;5.25;1.50;;;29.70;99.90;;;;;;5071479;28;20048;-79
2022/02/16 05:23:12;;;;;;;7.45;1.58;;;29.70;99.20;;;;;;5072763;28;20525;-78
2022/02/16 05:25:39;;;;;;;8.68;1.88;;;29.80;98.90;;;;;;5071474;28;20044;-79
2022/02/16 05:28:06;;;;;;;7.25;1.35;;;29.40;99.20;;;;;;5071795;28;20501;-78
2022/02/16 05:30:34;;;;;;;7.03;1.25;;;29.50;99.20;;;;;;5072775;28;20024;-79
2022/02/16 05:33:02;;;;;;;5.95;1.30;;;29.60;99.50;;;;;;5072633;28;20021;-79
2022/02/16 05:35:29;;;;;;;7.85;1.42;;;29.10;99.70;;;;;;5071149;28;20050;-79
2022/02/16 05:37:57;;;;;;;7.63;1.80;;;29.10;99.90;;;;;;5073090;28;20024;-82
2022/02/16 05:40:24;;;;;;;9.02;1.95;;;28.90;99.50;;;;;;5074406;28;20567;-82
2022/02/16 05:42:52;;;;;;;7.75;1.52;;;28.70;99.80;;;;;;5077923;28;20074;-82
2022/02/16 05:45:20;;;;;;;8.43;1.35;;;28.70;99.90;;;;;;5078080;28;20020;-81
2022/02/16 05:47:48;;;;;;;8.63;1.80;;;28.70;99.60;;;;;;5077540;28;20551;-82
2022/02/16 05:50:15;;;;;;;7.22;1.70;;;29.00;99.70;;;;;;5077601;28;20016;-79
2022/02/16 05:52:43;;;;;;;6.60;1.40;;;29.30;99.80;;;;;;5076638;28;20059;-82
2022/02/16 05:55:11;;;;;;;8.23;1.58;;;29.40;99.90;;;;;;5076138;28;20046;-79
2022/02/16 05:57:38;;;;;;;9.30;1.83;;;29.60;99.20;;;;;;5076138;28;20028;-80
2022/02/16 06:00:07;;;;;;;8.25;1.55;;;29.10;99.00;;;;;;5076410;28;20077;-81
2022/02/16 06:02:34;;;;;;;7.22;1.33;;;28.80;98.90;;;;;;5075904;28;20032;-78
2022/02/16 06:05:02;;;;;;;8.35;2.13;;;28.80;99.60;;;;;;5074874;28;20478;-80
2022/02/16 06:07:29;;;;;;;8.13;1.55;;;28.60;99.70;;;;;;5075988;28;20021;-78
2022/02/16 06:09:56;;;;;;;4.60;1.27;;;28.60;99.90;;;;;;5075783;28;20016;-82
2022/02/16 06:12:24;;;;;;;6.65;1.60;;;29.00;99.90;;;;;;5074664;28;20020;-81
2022/02/16 06:14:51;;;;;;;9.75;1.50;;;29.10;99.70;;;;;;5076114;28;20027;-84
2022/02/16 06:17:19;;;;;;;5.95;1.25;;;28.90;99.90;;;;;;5074478;28;20029;-79
2022/02/16 06:19:46;;;;;;;6.10;1.38;;;28.90;99.90;;;;;;5074600;28;20032;-80
2022/02/16 06:22:14;;;;;;;7.03;1.33;;;28.90;99.90;;;;;;5075130;28;20035;-79
2022/02/16 06:24:41;;;;;;;7.10;1.40;;;28.70;99.90;;;;;;5073907;28;20106;-75
2022/02/16 06:27:09;;;;;;;6.13;1.02;;;29.00;99.90;;;;;;5073971;28;20520;-79
2022/02/16 06:29:36;;;;;;;6.93;1.33;;;29.00;99.90;;;;;;5074150;28;20029;-79
2022/02/16 06:32:04;;;;;;;6.88;1.20;;;29.10;98.90;;;;;;5074191;28;20120;-79
2022/02/16 06:34:32;;;;;;;5.90;1.15;;;28.80;99.70;;;;;;5073953;28;20020;-78
2022/02/16 06:36:59;;;;;;;6.90;1.38;;;28.80;99.90;;;;;;5075409;28;20020;-79
2022/02/16 06:39:27;;;;;;;6.80;1.42;;;28.80;99.80;;;;;;5075325;28;20392;-80
2022/02/16 06:41:54;;;;;;;6.75;1.60;;;28.60;99.80;;;;;;5073997;28;20027;-78
2022/02/16 06:44:21;;;;;;;7.72;1.63;;;28.90;99.80;;;;;;5074188;28;20043;-79
2022/02/16 06:46:49;;;;;;;7.28;1.23;;;28.50;99.90;;;;;;5075911;28;20020;-82
2022/02/16 06:49:16;;;;;;;5.75;1.17;;;28.50;99.90;;;;;;5074561;28;20027;-79
2022/02/16 06:51:44;;;;;;;7.90;1.15;;;28.40;99.90;;;;;;5075352;28;20036;-79
2022/02/16 06:54:11;;;;;;;7.90;1.27;;;28.50;99.90;;;;;;5073613;28;20077;-80
2022/02/16 06:56:38;;;;;;;6.35;1.00;;;28.30;99.80;;;;;;5075899;28;20032;-78
2022/02/16 06:59:06;;;;;;;7.68;1.48;;;28.20;99.90;;;;;;5076005;28;20501;-80
2022/02/16 07:01:33;;;;;;;7.05;1.30;;;28.50;99.90;;;;;;5075565;28;20024;-80
2022/02/16 07:04:00;;;;;;;9.50;1.23;;;28.90;99.90;;;;;;5073667;28;20501;-79
2022/02/16 07:06:29;;;;;;;6.90;1.20;;;29.00;99.90;;;;;;5073773;28;20111;-79
2022/02/16 07:08:56;;;;;;;5.88;1.20;;;28.90;99.90;;;;;;5075771;28;20017;-80
2022/02/16 07:11:24;;;;;;;6.22;1.17;;;28.90;99.70;;;;;;5075346;28;20020;-77
2022/02/16 07:13:51;;;;;;;6.15;1.48;;;28.80;99.90;;;;;;5074159;28;20393;-79
2022/02/16 07:16:19;;;;;;;5.65;0.95;;;28.40;99.70;;;;;;5074107;28;20021;-78
2022/02/16 07:18:46;;;;;;;8.32;1.35;;;28.20;99.90;;;;;;5073408;28;20109;-76
2022/02/16 07:21:14;;;;;;;8.85;1.50;;;28.00;99.90;;;;;;5073543;28;20089;-78
2022/02/16 07:23:43;;;;;;;6.43;1.40;;;27.90;99.90;;;;;;5073400;28;20041;-78
2022/02/16 07:26:10;;;;;;;5.25;1.17;;;27.90;99.90;;;;;;5073879;28;20020;-78
2022/02/16 07:28:37;;;;;;;8.52;1.30;;;27.90;99.90;;;;;;5073030;28;20021;-78
2022/02/16 07:31:05;;;;;;;6.05;0.98;;;27.50;99.90;;;;;;5073423;28;20128;-78
2022/02/16 07:33:33;;;;;;;5.78;1.38;;;27.10;99.90;;;;;;5073424;28;20035;-79
2022/02/16 07:36:00;;;;;;;5.18;1.10;;;26.80;99.90;;;;;;5074651;28;20082;-79
2022/02/16 07:38:27;;;;;;;7.47;1.20;;;26.40;99.90;;;;;;5073506;28;20112;-79
2022/02/16 07:40:59;;;;;;;8.15;1.45;;;26.20;99.90;;;;;;5074052;28;20029;-79
2022/02/16 07:43:36;;;;;;;9.10;1.40;;;26.10;99.90;;;;;;5075430;28;20024;-81
2022/02/16 07:46:03;;;;;;;6.97;1.38;;;25.90;99.90;;;;;;5073622;28;20138;-78
2022/02/16 07:48:31;;;;;;;9.52;1.52;;;25.60;99.90;;;;;;5077345;28;20021;-77
2022/02/16 07:50:58;;;;;;;6.38;1.55;;;25.30;99.90;;;;;;5076322;28;20020;-81
2022/02/16 07:53:25;;;;;;;6.60;1.67;;;25.20;99.90;;;;;;5073755;28;20107;-79
2022/02/16 07:55:53;;;;;;;9.63;1.40;;;25.10;99.90;;;;;;5074739;28;20021;-79
2022/02/16 07:58:20;;;;;;;7.88;1.40;;;24.90;99.90;;;;;;5072985;28;20032;-80
2022/02/16 08:00:47;;;;;;;9.52;1.60;;;24.80;99.90;;;;;;5073155;28;20504;-79
2022/02/16 08:03:15;;;;;;;10.77;1.90;;;24.80;99.90;;;;;;5073570;28;20028;-79
2022/02/16 08:05:43;;;;;;;8.38;1.40;;;24.60;99.90;;;;;;5071857;28;20025;-81
2022/02/16 08:08:10;;;;;;;11.85;1.88;;;24.60;99.90;;;;;;5074535;28;20020;-80
2022/02/16 08:10:39;;;;;;;7.15;1.88;;;24.40;99.90;;;;;;5073353;28;20119;-80
2022/02/16 08:13:06;;;;;;;12.73;2.17;;;24.30;99.90;;;;;;5075215;28;20078;-79
2022/02/16 08:15:34;;;;;;;7.25;1.20;;;24.30;99.90;;;;;;5076482;28;20020;-79
2022/02/16 08:18:01;;;;;;;5.90;1.17;;;24.10;99.90;;;;;;5077729;28;20096;-78
2022/02/16 08:20:29;;;;;;;8.48;1.70;;;24.00;99.90;;;;;;5076979;28;20040;-79
2022/02/16 08:22:56;;;;;;;12.30;2.08;;;24.00;99.90;;;;;;5057685;28;20054;-79
2022/02/16 08:25:25;;;;;;;12.77;1.70;;;23.90;99.90;;;;;;5076921;28;20052;-80
2022/02/16 08:27:53;;;;;;;7.00;1.80;;;23.90;99.90;;;;;;5079134;28;20032;-77
2022/02/16 08:30:20;;;;;;;10.70;1.67;;;23.80;99.90;;;;;;5077744;28;20021;-78
2022/02/16 08:32:49;;;;;;;9.40;2.17;;;23.70;99.90;;;;;;5077263;28;20024;-78
2022/02/16 08:35:16;;;;;;;10.85;2.30;;;23.70;99.90;;;;;;5073983;28;20048;-77
2022/02/16 08:37:44;;;;;;;12.82;1.90;;;23.60;99.90;;;;;;5075390;28;20017;-78
2022/02/16 08:40:12;;;;;;;8.38;1.52;;;23.60;99.90;;;;;;5074338;28;20024;-79
2022/02/16 08:42:41;;;;;;;8.10;1.48;;;23.50;99.90;;;;;;5072798;28;20526;-78
2022/02/16 08:45:09;;;;;;;7.60;1.55;;;23.40;99.90;;;;;;5072715;28;20044;-79
2022/02/16 08:47:37;;;;;;;11.90;1.98;;;23.40;99.90;;;;;;5074078;28;20031;-78
2022/02/16 08:50:04;;;;;;;11.43;1.20;;;23.30;99.90;;;;;;5072493;28;20021;-78
2022/02/16 08:52:32;;;;;;;12.93;2.15;;;23.30;99.90;;;;;;5073798;28;20028;-79
2022/02/16 08:54:59;;;;;;;11.32;1.75;;;23.30;99.90;;;;;;5072231;28;20115;-79
2022/02/16 08:57:27;;;;;;;7.32;1.60;;;23.20;99.90;;;;;;5072700;28;20103;-79
2022/02/16 08:59:54;;;;;;;8.85;1.63;;;23.20;99.90;;;;;;5072256;28;20390;-79
2022/02/16 09:02:21;;;;;;;8.55;1.40;;;23.10;99.90;;;;;;5072515;28;20036;-78
2022/02/16 09:04:49;;;;;;;8.73;1.50;;;23.10;99.90;;;;;;5072036;28;20056;-79
2022/02/16 09:07:28;;;;;;;10.20;1.95;;;23.10;99.90;;;;;;5072546;28;20389;-78
2022/02/16 09:09:56;;;;;;;12.07;2.42;;;23.00;99.90;;;;;;5072249;28;20033;-80
2022/02/16 09:12:23;;;;;;;8.38;1.75;;;23.00;99.90;;;;;;5072301;28;20060;-79
2022/02/16 09:14:51;;;;;;;10.75;1.80;;;23.00;99.90;;;;;;5073820;28;20017;-79
2022/02/16 09:17:18;;;;;;;8.48;2.00;;;23.00;99.90;;;;;;5075664;28;20025;-79
2022/02/16 09:19:46;;;;;;;7.55;1.30;;;22.90;99.90;;;;;;5077259;28;20032;-77
2022/02/16 09:22:13;;;;;;;10.30;1.75;;;22.90;99.90;;;;;;5076095;28;20554;-80
2022/02/16 09:24:42;;;;;;;13.20;1.98;;;22.90;99.90;;;;;;5077169;28;20045;-81
2022/02/16 09:27:10;;;;;;;12.77;2.05;;;22.90;99.90;;;;;;5077069;28;20017;-80
2022/02/16 09:29:38;;;;;;;8.85;2.03;;;22.90;99.90;;;;;;5077466;28;20381;-80
2022/02/16 09:32:06;;;;;;;10.40;1.65;;;22.80;99.90;;;;;;5075576;28;20076;-80
2022/02/16 09:34:33;;;;;;;13.18;1.63;;;22.80;99.90;;;;;;5077515;28;20384;-78
2022/02/16 09:37:02;;;;;;;10.05;1.80;;;22.80;99.90;;;;;;5075603;28;20025;-81
2022/02/16 09:39:30;;;;;;;12.43;2.00;;;22.80;99.90;;;;;;5075584;28;20058;-80
2022/02/16 09:41:58;;;;;;;12.18;2.40;;;22.80;99.90;;;;;;5075409;28;20066;-80
2022/02/16 09:45:00;;;;;;;11.05;2.50;;;22.70;99.90;;;;;;5076562;28;20485;-80
2022/02/16 09:47:30;;;;;;;12.43;2.20;;;22.70;99.90;;;;;;5076311;28;20546;-79
2022/02/16 09:49:59;;;;;;;12.93;1.90;;;22.60;99.90;;;;;;5059271;28;20029;-80
2022/02/16 09:52:27;;;;;;;13.43;2.17;;;22.60;99.90;;;;;;5077150;28;20021;-80
2022/02/16 09:54:54;;;;;;;13.57;2.15;;;22.60;99.90;;;;;;5076720;28;20021;-80
2022/02/16 09:57:22;;;;;;;9.50;1.70;;;22.60;99.90;;;;;;5076552;28;20031;-80
2022/02/16 09:59:50;;;;;;;12.70;1.55;;;22.60;99.90;;;;;;5075247;28;20432;-80
2022/02/16 10:02:18;;;;;;;10.95;1.90;;;22.60;99.90;;;;;;5075923;28;20031;-79
2022/02/16 10:04:57;;;;;;;9.77;1.60;;;22.50;99.90;;;;;;5075026;28;20033;-78
2022/02/16 10:07:33;;;;;;;13.57;2.05;;;22.50;99.90;;;;;;5075238;28;20021;-80
2022/02/16 10:10:24;;;;;;;11.40;1.88;;;22.50;99.90;;;;;;5076549;28;20025;-80
2022/02/16 10:12:53;;;;;;;13.70;2.13;;;22.50;99.90;;;;;;5058336;28;20054;-81
2022/02/16 10:15:36;;;;;;;10.80;1.85;;;22.50;99.90;;;;;;5076186;28;20394;-80
2022/02/16 10:18:10;;;;;;;10.95;1.73;;;22.40;99.90;;;;;;5076707;28;20470;-80
2022/02/16 10:20:38;;;;;;;12.93;1.95;;;22.40;99.90;;;;;;5058989;28;20127;-78
2022/02/16 10:23:06;;;;;;;13.65;2.88;;;22.40;99.90;;;;;;5074463;28;20066;-77
2022/02/16 10:25:35;;;;;;;13.27;1.67;;;22.50;99.90;;;;;;5075574;28;20142;-79
2022/02/16 10:28:11;;;;;;;10.63;1.80;;;22.40;99.90;;;;;;5074791;28;20028;-78
2022/02/16 10:30:54;;;;;;;15.13;2.38;;;22.40;99.90;;;;;;5075955;28;20028;-79
2022/02/16 10:33:33;;;;;;;11.45;1.60;;;22.40;99.90;;;;;;5076042;28;20017;-78
2022/02/16 10:36:06;;;;;;;11.77;2.00;;;22.40;99.90;;;;;;5075679;28;20020;-78
2022/02/16 10:38:54;;;;;;;9.20;1.80;;;22.40;99.90;;;;;;5073974;28;20032;-78
2022/02/16 10:41:24;;;;;;;13.00;1.63;;;22.40;99.90;;;;;;5073944;28;20119;-78
2022/02/16 10:43:52;;;;;;;9.80;1.90;;;22.30;99.90;;;;;;5075380;28;20017;-79
2022/02/16 10:46:23;;;;;;;14.18;1.70;;;22.40;99.90;;;;;;5075228;28;20473;-79
2022/02/16 10:49:09;;;;;;;;;;;22.30;99.90;;;;;;5075578;28;20096;-78
2022/02/16 10:51:37;;;;;;;11.30;1.60;;;22.30;99.90;;;;;;5075084;28;19911;-79
2022/02/16 10:54:12;;;;;;;11.40;1.80;;;22.30;99.90;;;;;;5073894;28;20028;-78
2022/02/16 10:56:44;;;;;;;10.60;2.13;;;22.30;99.90;;;;;;5075098;28;20034;-78
2022/02/16 10:59:12;;;;;;;10.75;1.75;;;22.30;99.90;;;;;;5073776;28;20025;-78
2022/02/16 11:01:41;;;;;;;8.52;2.00;;;22.30;99.90;;;;;;5073871;28;20028;-78
2022/02/16 11:04:14;;;;;;;12.45;1.90;;;22.30;99.90;;;;;;5075256;28;20020;-78
2022/02/16 11:06:49;;;;;;;11.05;1.90;;;22.20;99.90;;;;;;5073909;28;20020;-78
2022/02/16 11:09:25;;;;;;;10.90;2.22;;;22.30;99.90;;;;;;5073762;28;20107;-78
2022/02/16 11:11:54;;;;;;;9.60;1.55;;;22.20;99.90;;;;;;5075245;28;20103;-78
2022/02/16 11:14:28;;;;;;;11.25;1.98;;;22.20;99.90;;;;;;5073492;28;20046;-78
2022/02/16 11:16:57;;;;;;;10.65;2.05;;;22.20;99.90;;;;;;5074865;28;20031;-78
2022/02/16 11:19:38;;;;;;;10.52;1.80;;;22.20;99.90;;;;;;5073972;28;20054;-78
2022/02/16 11:22:13;;;;;;;11.25;1.98;;;22.20;99.90;;;;;;5074848;28;20043;-79
2022/02/16 11:24:51;;;;;;;12.23;2.60;;;22.20;99.90;;;;;;5074272;28;20045;-79
2022/02/16 11:27:31;;;;;;;13.43;2.00;;;22.20;99.90;;;;;;5073757;28;20098;-78
2022/02/16 11:30:21;;;;;;;11.23;1.70;;;22.20;99.90;;;;;;5074842;28;20021;-79
2022/02/16 11:32:49;;;;;;;13.07;2.33;;;22.10;99.90;;;;;;5075023;28;20501;-79
2022/02/16 11:35:23;;;;;;;9.93;1.67;;;22.10;99.90;;;;;;5075831;28;20024;-79
2022/02/16 11:38:11;;;;;;;11.85;1.70;;;22.10;99.90;;;;;;5073148;28;20025;-77
2022/02/16 11:40:52;;;;;;;11.35;2.00;;;22.10;99.90;;;;;;5073742;28;20028;-77
2022/02/16 11:44:02;;;;;;;12.15;1.92;;;22.20;99.90;;;;;;5073924;28;20469;-77
2022/02/16 11:46:44;;;;;;;15.30;2.17;;;22.20;99.90;;;;;;5054730;28;20020;-77
2022/02/16 11:49:27;;;;;;;13.30;1.75;;;22.10;99.90;;;;;;5070705;28;20048;-77
2022/02/16 11:51:55;;;;;;;12.90;2.10;;;22.10;99.90;;;;;;5073852;28;20029;-77
2022/02/16 11:54:43;;;;;;;14.68;2.38;;;22.10;99.90;;;;;;5073801;28;20025;-78
2022/02/16 11:57:45;;;;;;;14.88;2.05;;;22.10;99.90;;;;;;5073737;28;20020;-77
2022/02/16 12:00:18;;;;;;;10.57;2.08;;;22.10;99.90;;;;;;5071840;28;20036;-77
2022/02/16 12:02:59;;;;;;;11.00;1.95;;;22.00;99.90;;;;;;5072274;28;20036;-77
2022/02/16 12:05:51;;;;;;;10.80;1.85;;;22.00;99.90;;;;;;5072143;28;20112;-75
2022/02/16 12:08:23;;;;;;;14.55;2.22;;;22.00;99.90;;;;;;5072316;28;20478;-77
2022/02/16 12:11:04;;;;;;;12.90;2.22;;;22.00;99.90;;;;;;5073383;28;20020;-77
2022/02/16 12:13:40;;;;;;;14.80;2.42;;;22.00;99.90;;;;;;5072161;28;20028;-77
2022/02/16 12:16:10;;;;;;;11.93;2.20;;;22.00;99.90;;;;;;5072354;28;20142;-76
2022/02/16 12:18:39;;;;;;;14.50;2.72;;;21.90;99.90;;;;;;5073468;28;20012;-76
2022/02/16 12:21:08;;;;;;;10.10;2.35;;;21.90;99.90;;;;;;5071934;28;20032;-77
2022/02/16 12:23:44;;;;;;;13.73;2.17;;;21.90;99.90;;;;;;5071710;28;20040;-77
2022/02/16 12:26:15;;;;;;;12.13;2.08;;;21.90;99.90;;;;;;5071994;28;20124;-77
2022/02/16 12:29:00;;;;;;;14.38;3.13;;;21.90;99.90;;;;;;5073417;28;20501;-77
2022/02/16 12:31:33;;;;;;;14.60;1.80;;;21.90;99.90;;;;;;5073295;28;20107;-77
2022/02/16 12:34:05;;;;;;;16.05;1.83;;;21.80;99.90;;;;;;5073122;28;20489;-77
2022/02/16 12:36:35;;;;;;;9.23;1.83;;;21.80;99.90;;;;;;5073242;28;20016;-76
2022/02/16 12:39:06;;;;;;;9.75;2.10;;;21.80;99.90;;;;;;5073453;28;20040;-76
2022/02/16 12:41:35;;;;;;;11.30;1.77;;;21.70;99.90;;;;;;5071782;28;20465;-77
2022/02/16 12:44:09;;;;;;;10.15;1.70;;;21.70;99.90;;;;;;5071852;28;20016;-76
2022/02/16 12:46:43;;;;;;;12.18;2.03;;;21.70;99.90;;;;;;5071683;28;20028;-76
2022/02/16 12:49:16;;;;;;;11.32;2.22;;;21.70;99.90;;;;;;5071743;28;20017;-76
2022/02/16 12:51:47;;;;;;;10.63;1.80;;;21.70;99.90;;;;;;5075005;28;20390;-76
2022/02/16 12:54:18;;;;;;;8.95;1.75;;;21.60;99.90;;;;;;5075682;28;20048;-76